createdAt,value
2018-11-13T00:00:25.619Z,993.58
2018-11-13T00:01:25.793Z,993.59
2018-11-13T00:02:25.469Z,993.69
2018-11-13T00:03:25.394Z,993.70
2018-11-13T00:04:25.321Z,993.74
2018-11-13T00:05:25.245Z,993.79
2018-11-13T00:06:25.271Z,993.80
2018-11-13T00:07:25.096Z,993.85
2018-11-13T00:08:25.021Z,993.80
2018-11-13T00:09:24.952Z,993.78
2018-11-13T00:10:24.872Z,993.75
2018-11-13T00:11:24.802Z,993.70
2018-11-13T00:12:24.731Z,993.65
2018-11-13T00:13:24.652Z,993.52
2018-11-13T00:14:24.574Z,993.51
2018-11-13T00:15:24.499Z,993.55
2018-11-13T00:16:24.424Z,993.54
2018-11-13T00:17:24.350Z,993.53
2018-11-13T00:18:24.276Z,993.46
2018-11-13T00:19:24.202Z,993.44
2018-11-13T00:20:24.126Z,993.54
2018-11-13T00:21:24.052Z,993.59
2018-11-13T00:22:23.978Z,993.63
2018-11-13T00:23:23.904Z,993.72
2018-11-13T00:24:23.829Z,993.79
2018-11-13T00:25:23.812Z,993.89
2018-11-13T00:26:23.679Z,993.95
2018-11-13T00:27:23.640Z,993.86
2018-11-13T00:28:23.531Z,993.76
2018-11-13T00:29:23.478Z,993.66
2018-11-13T00:30:23.878Z,993.64
2018-11-13T00:31:23.307Z,993.63
2018-11-13T00:32:23.482Z,993.68
2018-11-13T00:33:23.157Z,993.69
2018-11-13T00:34:23.087Z,993.76
2018-11-13T00:35:23.010Z,993.79
2018-11-13T00:36:22.934Z,993.79
2018-11-13T00:37:22.859Z,993.80
2018-11-13T00:38:22.785Z,993.82
2018-11-13T00:39:22.711Z,993.88
2018-11-13T00:40:22.636Z,993.97
2018-11-13T00:41:22.562Z,993.96
2018-11-13T00:42:22.488Z,993.88
2018-11-13T00:43:22.412Z,993.80
2018-11-13T00:44:22.341Z,993.70
2018-11-13T00:45:22.318Z,993.73
2018-11-13T00:46:22.189Z,993.73
2018-11-13T00:47:22.114Z,993.79
2018-11-13T00:48:22.053Z,993.84
2018-11-13T00:49:21.964Z,993.86
2018-11-13T00:50:21.890Z,993.87
2018-11-13T00:51:21.815Z,993.89
2018-11-13T00:52:21.740Z,993.88
2018-11-13T00:53:21.664Z,993.84
2018-11-13T00:54:21.592Z,993.86
2018-11-13T00:55:21.517Z,993.80
2018-11-13T00:56:21.441Z,993.79
2018-11-13T00:57:21.368Z,993.81
2018-11-13T00:58:21.292Z,993.83
2018-11-13T00:59:21.227Z,993.85
2018-11-13T01:00:21.169Z,993.86
2018-11-13T01:01:21.076Z,993.92
2018-11-13T01:02:20.994Z,993.91
2018-11-13T01:03:20.969Z,993.98
2018-11-13T01:04:20.847Z,994.04
2018-11-13T01:05:20.889Z,994.09
2018-11-13T01:06:20.697Z,994.05
2018-11-13T01:07:20.621Z,994.06
2018-11-13T01:08:20.545Z,994.03
2018-11-13T01:09:20.481Z,994.03
2018-11-13T01:10:20.399Z,994.07
2018-11-13T01:11:20.322Z,994.01
2018-11-13T01:12:20.247Z,994.08
2018-11-13T01:13:20.172Z,994.12
2018-11-13T01:14:20.099Z,994.14
2018-11-13T01:15:20.024Z,994.17
2018-11-13T01:16:19.948Z,994.17
2018-11-13T01:17:19.948Z,994.18
2018-11-13T01:18:19.799Z,994.24
2018-11-13T01:19:19.727Z,994.29
2018-11-13T01:20:19.650Z,994.28
2018-11-13T01:21:19.577Z,994.35
2018-11-13T01:22:19.551Z,994.31
2018-11-13T01:23:19.477Z,994.28
2018-11-13T01:24:19.479Z,994.17
2018-11-13T01:25:19.280Z,994.09
2018-11-13T01:26:19.203Z,994.08
2018-11-13T01:27:19.129Z,994.04
2018-11-13T01:28:19.052Z,994.00
2018-11-13T01:29:18.979Z,994.01
2018-11-13T01:30:18.904Z,994.00
2018-11-13T01:31:18.829Z,994.06
2018-11-13T01:32:18.754Z,994.06
2018-11-13T01:33:18.929Z,994.08
2018-11-13T01:34:18.604Z,994.00
2018-11-13T01:35:18.529Z,993.97
2018-11-13T01:36:18.454Z,993.95
2018-11-13T01:37:18.383Z,993.85
2018-11-13T01:38:18.357Z,993.75
2018-11-13T01:39:18.231Z,993.72
2018-11-13T01:40:18.155Z,993.78
2018-11-13T01:41:18.086Z,993.91
2018-11-13T01:42:18.007Z,994.06
2018-11-13T01:43:18.183Z,994.21
2018-11-13T01:44:17.863Z,994.37
2018-11-13T01:45:17.783Z,994.47
2018-11-13T01:46:17.706Z,994.56
2018-11-13T01:47:17.634Z,994.62
2018-11-13T01:48:17.559Z,994.60
2018-11-13T01:49:17.484Z,994.58
2018-11-13T01:50:17.413Z,994.51
2018-11-13T01:51:17.334Z,994.45
2018-11-13T01:52:17.259Z,994.34
2018-11-13T01:53:17.185Z,994.28
2018-11-13T01:54:17.169Z,994.20
2018-11-13T01:55:17.036Z,994.21
2018-11-13T01:56:16.961Z,994.22
2018-11-13T01:57:16.886Z,994.22
2018-11-13T01:58:16.811Z,994.26
2018-11-13T01:59:16.737Z,994.22
2018-11-13T02:00:16.660Z,994.11
2018-11-13T02:01:16.586Z,994.09
2018-11-13T02:02:16.511Z,994.07
2018-11-13T02:03:16.439Z,994.08
2018-11-13T02:04:16.361Z,994.10
2018-11-13T02:05:16.288Z,994.11
2018-11-13T02:06:16.211Z,994.10
2018-11-13T02:07:16.137Z,994.15
2018-11-13T02:08:16.061Z,994.14
2018-11-13T02:09:16.035Z,994.09
2018-11-13T02:10:15.911Z,994.06
2018-11-13T02:11:15.836Z,994.02
2018-11-13T02:12:15.761Z,994.02
2018-11-13T02:13:15.686Z,994.01
2018-11-13T02:14:15.662Z,993.99
2018-11-13T02:15:15.536Z,994.00
2018-11-13T02:16:15.461Z,994.01
2018-11-13T02:17:15.386Z,993.96
2018-11-13T02:18:15.312Z,993.99
2018-11-13T02:19:15.287Z,993.93
2018-11-13T02:20:15.163Z,993.92
2018-11-13T02:21:15.087Z,993.93
2018-11-13T02:22:15.013Z,993.87
2018-11-13T02:23:14.938Z,993.94
2018-11-13T02:24:14.862Z,993.98
2018-11-13T02:25:14.887Z,994.03
2018-11-13T02:26:20.978Z,994.04
2018-11-13T02:27:14.636Z,994.16
2018-11-13T02:28:14.560Z,994.23
2018-11-13T02:29:14.487Z,994.26
2018-11-13T02:30:14.412Z,994.33
2018-11-13T02:31:14.337Z,994.39
2018-11-13T02:32:14.262Z,994.36
2018-11-13T02:33:14.186Z,994.34
2018-11-13T02:34:14.110Z,994.33
2018-11-13T02:35:14.158Z,994.28
2018-11-13T02:36:13.961Z,994.30
2018-11-13T02:37:13.986Z,994.25
2018-11-13T02:38:13.810Z,994.22
2018-11-13T02:39:13.735Z,994.22
2018-11-13T02:40:13.660Z,994.21
2018-11-13T02:41:13.584Z,994.19
2018-11-13T02:42:13.509Z,994.22
2018-11-13T02:43:13.435Z,994.18
2018-11-13T02:44:13.359Z,994.10
2018-11-13T02:45:13.287Z,994.05
2018-11-13T02:46:13.210Z,994.04
2018-11-13T02:47:13.187Z,994.14
2018-11-13T02:48:13.158Z,994.29
2018-11-13T02:49:12.982Z,994.48
2018-11-13T02:50:12.909Z,994.69
2018-11-13T02:51:12.834Z,994.84
2018-11-13T02:52:12.756Z,994.92
2018-11-13T02:53:12.933Z,994.96
2018-11-13T02:54:12.607Z,994.88
2018-11-13T02:55:12.536Z,994.81
2018-11-13T02:56:12.456Z,994.73
2018-11-13T02:57:12.381Z,994.68
2018-11-13T02:58:12.310Z,994.65
2018-11-13T02:59:12.230Z,994.60
2018-11-13T03:00:12.155Z,994.66
2018-11-13T03:01:12.080Z,994.65
2018-11-13T03:02:12.004Z,994.65
2018-11-13T03:03:12.179Z,994.63
2018-11-13T03:04:11.854Z,994.61
2018-11-13T03:05:11.779Z,994.54
2018-11-13T03:06:11.704Z,994.54
2018-11-13T03:07:11.629Z,994.57
2018-11-13T03:08:11.551Z,994.59
2018-11-13T03:09:11.476Z,994.55
2018-11-13T03:10:11.405Z,994.56
2018-11-13T03:11:11.328Z,994.64
2018-11-13T03:12:11.251Z,994.66
2018-11-13T03:13:11.178Z,994.70
2018-11-13T03:14:11.151Z,994.71
2018-11-13T03:15:11.026Z,994.74
2018-11-13T03:16:10.949Z,994.80
2018-11-13T03:17:10.873Z,994.80
2018-11-13T03:18:10.801Z,994.91
2018-11-13T03:19:10.725Z,994.98
2018-11-13T03:20:10.651Z,995.00
2018-11-13T03:21:10.572Z,994.98
2018-11-13T03:22:10.499Z,995.05
2018-11-13T03:23:10.423Z,995.02
2018-11-13T03:24:10.346Z,994.96
2018-11-13T03:25:10.379Z,995.04
2018-11-13T03:26:10.196Z,995.02
2018-11-13T03:27:10.125Z,994.99
2018-11-13T03:28:10.045Z,994.94
2018-11-13T03:29:09.970Z,994.90
2018-11-13T03:30:09.950Z,994.85
2018-11-13T03:31:09.892Z,994.87
2018-11-13T03:32:09.744Z,994.87
2018-11-13T03:33:09.669Z,994.94
2018-11-13T03:34:09.593Z,995.03
2018-11-13T03:35:09.568Z,995.09
2018-11-13T03:36:09.451Z,995.20
2018-11-13T03:37:09.367Z,995.24
2018-11-13T03:38:09.291Z,995.27
2018-11-13T03:39:09.217Z,995.28
2018-11-13T03:40:09.239Z,995.27
2018-11-13T03:41:09.064Z,995.24
2018-11-13T03:42:08.989Z,995.23
2018-11-13T03:43:08.916Z,995.21
2018-11-13T03:44:08.838Z,995.25
2018-11-13T03:45:08.763Z,995.24
2018-11-13T03:46:08.689Z,995.28
2018-11-13T03:47:08.613Z,995.24
2018-11-13T03:48:08.536Z,995.21
2018-11-13T03:49:08.461Z,995.12
2018-11-13T03:50:08.387Z,995.07
2018-11-13T03:51:08.311Z,995.06
2018-11-13T03:52:08.236Z,995.06
2018-11-13T03:53:08.168Z,995.01
2018-11-13T03:54:08.085Z,994.96
2018-11-13T03:55:08.010Z,994.93
2018-11-13T03:56:07.935Z,994.94
2018-11-13T03:57:07.858Z,994.94
2018-11-13T03:58:07.783Z,995.02
2018-11-13T03:59:07.707Z,995.08
2018-11-13T04:00:07.730Z,995.12
2018-11-13T04:01:07.557Z,995.18
2018-11-13T04:02:07.482Z,995.26
2018-11-13T04:03:07.406Z,995.32
2018-11-13T04:04:07.330Z,995.34
2018-11-13T04:05:07.256Z,995.36
2018-11-13T04:06:07.179Z,995.39
2018-11-13T04:07:07.102Z,995.37
2018-11-13T04:08:07.026Z,995.33
2018-11-13T04:09:06.955Z,995.27
2018-11-13T04:10:06.879Z,995.30
2018-11-13T04:11:06.804Z,995.23
2018-11-13T04:12:06.726Z,995.24
2018-11-13T04:13:06.649Z,995.27
2018-11-13T04:14:06.574Z,995.26
2018-11-13T04:15:06.599Z,995.34
2018-11-13T04:16:06.423Z,995.38
2018-11-13T04:17:06.348Z,995.44
2018-11-13T04:18:06.273Z,995.48
2018-11-13T04:19:06.197Z,995.49
2018-11-13T04:20:06.171Z,995.51
2018-11-13T04:21:06.045Z,995.53
2018-11-13T04:22:05.969Z,995.55
2018-11-13T04:23:05.894Z,995.51
2018-11-13T04:24:05.819Z,995.50
2018-11-13T04:25:05.744Z,995.53
2018-11-13T04:26:05.769Z,995.52
2018-11-13T04:27:05.592Z,995.45
2018-11-13T04:28:05.516Z,995.40
2018-11-13T04:29:05.441Z,995.43
2018-11-13T04:30:05.365Z,995.44
2018-11-13T04:31:05.291Z,995.47
2018-11-13T04:32:05.214Z,995.52
2018-11-13T04:33:05.139Z,995.57
2018-11-13T04:34:05.065Z,995.57
2018-11-13T04:35:04.988Z,995.59
2018-11-13T04:36:04.961Z,995.58
2018-11-13T04:37:04.836Z,995.56
2018-11-13T04:38:04.760Z,995.51
2018-11-13T04:39:04.685Z,995.51
2018-11-13T04:40:04.609Z,995.48
2018-11-13T04:41:04.536Z,995.45
2018-11-13T04:42:04.459Z,995.48
2018-11-13T04:43:04.384Z,995.44
2018-11-13T04:44:04.315Z,995.43
2018-11-13T04:45:04.234Z,995.41
2018-11-13T04:46:04.156Z,995.45
2018-11-13T04:47:04.081Z,995.45
2018-11-13T04:48:04.012Z,995.47
2018-11-13T04:49:03.930Z,995.48
2018-11-13T04:50:03.854Z,995.49
2018-11-13T04:51:03.780Z,995.52
2018-11-13T04:52:03.704Z,995.51
2018-11-13T04:53:03.633Z,995.47
2018-11-13T04:54:03.552Z,995.45
2018-11-13T04:55:03.477Z,995.40
2018-11-13T04:56:03.401Z,995.41
2018-11-13T04:57:03.326Z,995.36
2018-11-13T04:58:03.250Z,995.35
2018-11-13T04:59:03.174Z,995.34
2018-11-13T05:00:03.103Z,995.35
2018-11-13T05:01:03.030Z,995.35
2018-11-13T05:02:02.947Z,995.34
2018-11-13T05:03:02.948Z,995.34
2018-11-13T05:04:02.795Z,995.33
2018-11-13T05:05:02.720Z,995.35
2018-11-13T05:06:02.644Z,995.37
2018-11-13T05:07:02.569Z,995.37
2018-11-13T05:08:02.493Z,995.38
2018-11-13T05:09:02.419Z,995.37
2018-11-13T05:10:02.391Z,995.33
2018-11-13T05:11:02.265Z,995.35
2018-11-13T05:12:02.191Z,995.36
2018-11-13T05:13:02.115Z,995.35
2018-11-13T05:14:02.040Z,995.41
2018-11-13T05:15:01.969Z,995.45
2018-11-13T05:16:01.889Z,995.55
2018-11-13T05:17:01.812Z,995.56
2018-11-13T05:18:01.740Z,995.60
2018-11-13T05:19:01.667Z,995.57
2018-11-13T05:20:01.585Z,995.59
2018-11-13T05:21:01.508Z,995.53
2018-11-13T05:22:01.434Z,995.52
2018-11-13T05:23:01.428Z,995.51
2018-11-13T05:24:01.281Z,995.52
2018-11-13T05:25:01.206Z,995.53
2018-11-13T05:26:01.135Z,995.50
2018-11-13T05:27:01.056Z,995.57
2018-11-13T05:28:00.979Z,995.57
2018-11-13T05:29:01.005Z,995.60
2018-11-13T05:30:00.827Z,995.60
2018-11-13T05:31:00.752Z,995.63
2018-11-13T05:32:00.678Z,995.66
2018-11-13T05:33:00.599Z,995.67
2018-11-13T05:34:00.523Z,995.64
2018-11-13T05:35:00.449Z,995.74
2018-11-13T05:36:00.371Z,995.79
2018-11-13T05:37:00.298Z,995.78
2018-11-13T05:38:00.232Z,995.80
2018-11-13T05:39:00.145Z,995.85
2018-11-13T05:40:00.069Z,995.87
2018-11-13T05:40:59.992Z,995.96
2018-11-13T05:41:59.918Z,995.97
2018-11-13T05:42:59.842Z,996.06
2018-11-13T05:43:59.765Z,996.02
2018-11-13T05:44:59.690Z,996.05
2018-11-13T05:45:59.620Z,996.04
2018-11-13T05:46:59.549Z,996.08
2018-11-13T05:47:59.464Z,996.08
2018-11-13T05:48:59.386Z,996.15
2018-11-13T05:49:59.310Z,996.20
2018-11-13T05:50:59.238Z,996.22
2018-11-13T05:51:59.158Z,996.27
2018-11-13T05:52:59.082Z,996.22
2018-11-13T05:53:59.007Z,996.25
2018-11-13T05:54:58.931Z,996.27
2018-11-13T05:55:58.854Z,996.28
2018-11-13T05:56:58.778Z,996.28
2018-11-13T05:57:58.703Z,996.31
2018-11-13T05:58:58.626Z,996.32
2018-11-13T05:59:58.634Z,996.34
2018-11-13T06:00:58.474Z,996.39
2018-11-13T06:01:58.398Z,996.39
2018-11-13T06:02:58.322Z,996.41
2018-11-13T06:03:58.246Z,996.41
2018-11-13T06:04:58.170Z,996.41
2018-11-13T06:05:58.094Z,996.37
2018-11-13T06:06:58.020Z,996.36
2018-11-13T06:07:57.942Z,996.33
2018-11-13T06:08:57.866Z,996.34
2018-11-13T06:09:57.791Z,996.32
2018-11-13T06:10:57.714Z,996.31
2018-11-13T06:11:57.636Z,996.26
2018-11-13T06:12:57.562Z,996.30
2018-11-13T06:13:57.544Z,996.33
2018-11-13T06:14:57.410Z,996.32
2018-11-13T06:15:57.333Z,996.30
2018-11-13T06:16:57.257Z,996.36
2018-11-13T06:17:57.184Z,996.33
2018-11-13T06:18:57.104Z,996.29
2018-11-13T06:19:57.032Z,996.28
2018-11-13T06:20:56.953Z,996.32
2018-11-13T06:21:56.877Z,996.33
2018-11-13T06:22:56.807Z,996.35
2018-11-13T06:23:56.724Z,996.37
2018-11-13T06:24:56.648Z,996.42
2018-11-13T06:25:56.573Z,996.39
2018-11-13T06:26:56.496Z,996.43
2018-11-13T06:27:56.420Z,996.38
2018-11-13T06:28:56.347Z,996.42
2018-11-13T06:29:56.272Z,996.39
2018-11-13T06:30:56.194Z,996.41
2018-11-13T06:31:56.117Z,996.41
2018-11-13T06:32:56.041Z,996.42
2018-11-13T06:33:55.964Z,996.44
2018-11-13T06:34:55.890Z,996.45
2018-11-13T06:35:55.812Z,996.51
2018-11-13T06:36:55.737Z,996.47
2018-11-13T06:37:55.660Z,996.45
2018-11-13T06:38:55.705Z,996.51
2018-11-13T06:39:55.557Z,996.49
2018-11-13T06:40:55.432Z,996.46
2018-11-13T06:41:55.360Z,996.52
2018-11-13T06:42:55.279Z,996.55
2018-11-13T06:43:55.203Z,996.59
2018-11-13T06:44:55.126Z,996.60
2018-11-13T06:45:55.051Z,996.58
2018-11-13T06:46:54.974Z,996.67
2018-11-13T06:47:54.901Z,996.68
2018-11-13T06:48:54.839Z,996.68
2018-11-13T06:49:54.746Z,996.71
2018-11-13T06:50:54.670Z,996.69
2018-11-13T06:51:54.599Z,996.73
2018-11-13T06:52:54.516Z,996.81
2018-11-13T06:53:54.440Z,996.82
2018-11-13T06:54:54.366Z,996.81
2018-11-13T06:55:54.288Z,996.82
2018-11-13T06:56:54.212Z,996.90
2018-11-13T06:57:54.135Z,996.88
2018-11-13T06:58:54.060Z,996.91
2018-11-13T06:59:53.984Z,996.94
2018-11-13T07:00:53.907Z,996.91
2018-11-13T07:01:53.830Z,996.91
2018-11-13T07:02:53.755Z,996.95
2018-11-13T07:03:53.676Z,996.99
2018-11-13T07:04:53.630Z,996.93
2018-11-13T07:05:53.525Z,996.91
2018-11-13T07:06:53.449Z,996.92
2018-11-13T07:07:53.375Z,996.95
2018-11-13T07:08:53.296Z,996.96
2018-11-13T07:09:53.220Z,996.98
2018-11-13T07:10:53.205Z,997.02
2018-11-13T07:11:53.065Z,997.03
2018-11-13T07:12:52.990Z,997.09
2018-11-13T07:13:52.914Z,997.02
2018-11-13T07:14:52.837Z,997.08
2018-11-13T07:15:52.760Z,997.11
2018-11-13T07:16:52.684Z,997.11
2018-11-13T07:17:52.607Z,997.10
2018-11-13T07:18:52.532Z,997.01
2018-11-13T07:19:52.453Z,997.04
2018-11-13T07:20:52.427Z,996.99
2018-11-13T07:21:52.301Z,997.01
2018-11-13T07:22:52.224Z,997.02
2018-11-13T07:23:52.147Z,997.02
2018-11-13T07:24:52.072Z,997.02
2018-11-13T07:25:52.000Z,997.00
2018-11-13T07:26:51.941Z,997.03
2018-11-13T07:27:52.029Z,996.97
2018-11-13T07:28:51.765Z,996.98
2018-11-13T07:29:51.690Z,997.03
2018-11-13T07:30:51.613Z,997.04
2018-11-13T07:31:51.537Z,997.04
2018-11-13T07:32:51.460Z,997.07
2018-11-13T07:33:51.383Z,997.11
2018-11-13T07:34:51.306Z,997.17
2018-11-13T07:35:51.232Z,997.22
2018-11-13T07:36:51.154Z,997.25
2018-11-13T07:37:51.076Z,997.21
2018-11-13T07:38:51.001Z,997.22
2018-11-13T07:39:50.923Z,997.21
2018-11-13T07:40:50.879Z,997.17
2018-11-13T07:41:50.771Z,997.12
2018-11-13T07:42:50.696Z,997.04
2018-11-13T07:43:50.618Z,996.98
2018-11-13T07:44:50.542Z,996.95
2018-11-13T07:45:50.465Z,996.90
2018-11-13T07:46:50.449Z,996.91
2018-11-13T07:47:50.473Z,996.92
2018-11-13T07:48:50.237Z,996.95
2018-11-13T07:49:50.160Z,997.04
2018-11-13T07:50:50.086Z,997.17
2018-11-13T07:51:50.009Z,997.22
2018-11-13T07:52:49.933Z,997.23
2018-11-13T07:53:49.870Z,997.30
2018-11-13T07:54:49.780Z,997.31
2018-11-13T07:55:49.703Z,997.34
2018-11-13T07:56:49.629Z,997.41
2018-11-13T07:57:49.552Z,997.44
2018-11-13T07:58:49.480Z,997.47
2018-11-13T07:59:49.399Z,997.48
2018-11-13T08:00:49.325Z,997.55
2018-11-13T08:01:49.249Z,997.59
2018-11-13T08:02:49.172Z,997.59
2018-11-13T08:03:49.145Z,997.53
2018-11-13T08:04:49.020Z,997.52
2018-11-13T08:05:48.948Z,997.52
2018-11-13T08:06:49.024Z,997.60
2018-11-13T08:07:48.794Z,997.61
2018-11-13T08:08:48.717Z,997.58
2018-11-13T08:09:48.642Z,997.47
2018-11-13T08:10:48.566Z,997.43
2018-11-13T08:11:48.490Z,997.40
2018-11-13T08:12:48.509Z,997.45
2018-11-13T08:13:48.439Z,997.49
2018-11-13T08:14:48.266Z,997.56
2018-11-13T08:15:48.188Z,997.65
2018-11-13T08:16:48.112Z,997.71
2018-11-13T08:17:48.035Z,997.71
2018-11-13T08:18:47.968Z,997.69
2018-11-13T08:19:47.886Z,997.72
2018-11-13T08:20:47.810Z,997.77
2018-11-13T08:21:47.734Z,997.81
2018-11-13T08:22:47.658Z,997.87
2018-11-13T08:23:47.584Z,997.85
2018-11-13T08:24:47.508Z,997.83
2018-11-13T08:25:47.432Z,997.85
2018-11-13T08:26:47.374Z,997.97
2018-11-13T08:27:47.359Z,997.94
2018-11-13T08:28:47.248Z,998.02
2018-11-13T08:29:47.131Z,998.08
2018-11-13T08:30:47.056Z,998.11
2018-11-13T08:31:46.984Z,998.12
2018-11-13T08:32:46.906Z,998.09
2018-11-13T08:33:46.829Z,998.09
2018-11-13T08:34:46.784Z,998.11
2018-11-13T08:35:46.781Z,998.13
2018-11-13T08:36:46.602Z,998.15
2018-11-13T08:37:46.526Z,998.17
2018-11-13T08:38:46.450Z,998.21
2018-11-13T08:39:46.374Z,998.28
2018-11-13T08:40:46.300Z,998.36
2018-11-13T08:41:46.223Z,998.48
2018-11-13T08:42:46.148Z,998.53
2018-11-13T08:43:46.152Z,998.57
2018-11-13T08:44:46.001Z,998.53
2018-11-13T08:45:45.921Z,998.51
2018-11-13T08:46:45.847Z,998.57
2018-11-13T08:47:45.768Z,998.59
2018-11-13T08:48:45.692Z,998.61
2018-11-13T08:49:45.616Z,998.56
2018-11-13T08:50:45.557Z,998.56
2018-11-13T08:51:45.465Z,998.55
2018-11-13T08:52:45.388Z,998.60
2018-11-13T08:53:45.316Z,998.52
2018-11-13T08:54:45.238Z,998.52
2018-11-13T08:55:45.161Z,998.56
2018-11-13T08:56:45.085Z,998.46
2018-11-13T08:57:45.010Z,998.53
2018-11-13T08:58:44.943Z,998.51
2018-11-13T08:59:44.984Z,998.52
2018-11-13T09:00:44.780Z,998.52
2018-11-13T09:01:44.705Z,998.53
2018-11-13T09:02:44.680Z,998.54
2018-11-13T09:03:44.556Z,998.60
2018-11-13T09:04:44.476Z,998.53
2018-11-13T09:05:44.402Z,998.51
2018-11-13T09:06:44.325Z,998.49
2018-11-13T09:07:44.248Z,998.56
2018-11-13T09:08:44.172Z,998.69
2018-11-13T09:09:44.096Z,998.81
2018-11-13T09:10:44.021Z,998.84
2018-11-13T09:11:44.031Z,998.90
2018-11-13T09:12:43.868Z,998.84
2018-11-13T09:13:43.792Z,998.86
2018-11-13T09:14:43.716Z,998.85
2018-11-13T09:15:43.638Z,998.92
2018-11-13T09:16:43.563Z,998.95
2018-11-13T09:17:43.488Z,999.06
2018-11-13T09:18:43.452Z,999.16
2018-11-13T09:19:43.455Z,999.23
2018-11-13T09:20:43.260Z,999.16
2018-11-13T09:21:43.238Z,999.17
2018-11-13T09:22:43.186Z,999.17
2018-11-13T09:23:43.030Z,999.06
2018-11-13T09:24:42.955Z,999.07
2018-11-13T09:25:42.885Z,999.08
2018-11-13T09:26:42.802Z,999.16
2018-11-13T09:27:42.763Z,999.23
2018-11-13T09:28:42.652Z,999.29
2018-11-13T09:29:42.654Z,999.26
2018-11-13T09:30:42.816Z,999.29
2018-11-13T09:31:42.433Z,999.20
2018-11-13T09:32:42.345Z,999.13
2018-11-13T09:33:42.344Z,999.23
2018-11-13T09:34:42.193Z,999.32
2018-11-13T09:35:42.115Z,999.38
2018-11-13T09:36:42.040Z,999.42
2018-11-13T09:37:42.159Z,999.39
2018-11-13T09:38:41.887Z,999.35
2018-11-13T09:39:41.810Z,999.34
2018-11-13T09:40:41.734Z,999.26
2018-11-13T09:41:41.658Z,999.25
2018-11-13T09:42:41.582Z,999.32
2018-11-13T09:43:41.507Z,999.41
2018-11-13T09:44:41.444Z,999.51
2018-11-13T09:45:41.385Z,999.53
2018-11-13T09:46:41.303Z,999.54
2018-11-13T09:47:41.436Z,999.47
2018-11-13T09:48:41.155Z,999.48
2018-11-13T09:49:41.049Z,999.48
2018-11-13T09:50:40.986Z,999.49
2018-11-13T09:51:40.948Z,999.51
2018-11-13T09:52:40.821Z,999.53
2018-11-13T09:53:40.768Z,999.56
2018-11-13T09:54:40.669Z,999.53
2018-11-13T09:55:40.595Z,999.59
2018-11-13T09:56:40.518Z,999.69
2018-11-13T09:57:40.441Z,999.67
2018-11-13T09:58:40.681Z,999.66
2018-11-13T09:59:40.289Z,999.63
2018-11-13T10:00:40.415Z,999.58
2018-11-13T10:01:40.411Z,999.52
2018-11-13T10:02:40.756Z,999.48
2018-11-13T10:03:40.828Z,999.54
2018-11-13T10:04:40.805Z,999.55
2018-11-13T10:05:40.038Z,999.54
2018-11-13T10:06:39.805Z,999.49
2018-11-13T10:07:39.683Z,999.52
2018-11-13T10:08:39.606Z,999.52
2018-11-13T10:09:39.533Z,999.54
2018-11-13T10:10:39.538Z,999.52
2018-11-13T10:11:39.379Z,999.54
2018-11-13T10:12:39.308Z,999.56
2018-11-13T10:13:39.229Z,999.55
2018-11-13T10:14:39.153Z,999.52
2018-11-13T10:15:39.110Z,999.56
2018-11-13T10:16:39.000Z,999.55
2018-11-13T10:17:38.995Z,999.59
2018-11-13T10:18:38.849Z,999.61
2018-11-13T10:19:38.772Z,999.61
2018-11-13T10:20:38.697Z,999.58
2018-11-13T10:21:38.622Z,999.54
2018-11-13T10:22:38.546Z,999.58
2018-11-13T10:23:38.469Z,999.55
2018-11-13T10:24:38.393Z,999.65
2018-11-13T10:25:38.318Z,999.63
2018-11-13T10:26:38.245Z,999.64
2018-11-13T10:27:38.224Z,999.61
2018-11-13T10:28:38.090Z,999.62
2018-11-13T10:29:38.016Z,999.59
2018-11-13T10:30:37.945Z,999.55
2018-11-13T10:31:37.863Z,999.59
2018-11-13T10:32:37.789Z,999.59
2018-11-13T10:33:37.715Z,999.56
2018-11-13T10:34:37.639Z,999.61
2018-11-13T10:35:37.565Z,999.61
2018-11-13T10:36:37.487Z,999.63
2018-11-13T10:37:37.411Z,999.66
2018-11-13T10:38:37.336Z,999.64
2018-11-13T10:39:37.261Z,999.66
2018-11-13T10:40:37.336Z,999.70
2018-11-13T10:41:37.226Z,999.66
2018-11-13T10:42:37.037Z,999.71
2018-11-13T10:43:36.958Z,999.69
2018-11-13T10:44:36.885Z,999.77
2018-11-13T10:45:36.806Z,999.71
2018-11-13T10:46:36.732Z,999.78
2018-11-13T10:47:36.658Z,999.73
2018-11-13T10:48:36.580Z,999.77
2018-11-13T10:49:36.505Z,999.83
2018-11-13T10:50:36.432Z,999.80
2018-11-13T10:51:36.354Z,999.83
2018-11-13T10:52:36.279Z,999.82
2018-11-13T10:53:36.204Z,999.76
2018-11-13T10:54:36.128Z,999.83
2018-11-13T10:55:36.051Z,999.80
2018-11-13T10:56:36.065Z,999.83
2018-11-13T10:57:35.909Z,999.75
2018-11-13T10:58:35.835Z,999.73
2018-11-13T10:59:35.749Z,999.71
2018-11-13T11:00:35.679Z,999.65
2018-11-13T11:01:35.598Z,999.76
2018-11-13T11:02:35.658Z,999.66
2018-11-13T11:03:35.447Z,999.65
2018-11-13T11:04:35.414Z,999.65
2018-11-13T11:05:35.296Z,999.62
2018-11-13T11:06:35.223Z,999.62
2018-11-13T11:07:35.298Z,999.66
2018-11-13T11:08:35.070Z,999.76
2018-11-13T11:09:34.996Z,999.72
2018-11-13T11:10:34.923Z,999.74
2018-11-13T11:11:34.965Z,999.78
2018-11-13T11:12:34.772Z,999.83
2018-11-13T11:13:34.836Z,999.79
2018-11-13T11:14:34.620Z,999.83
2018-11-13T11:15:34.547Z,999.85
2018-11-13T11:16:34.469Z,999.80
2018-11-13T11:17:34.395Z,999.86
2018-11-13T11:18:34.347Z,999.91
2018-11-13T11:19:34.372Z,999.90
2018-11-13T11:20:34.171Z,999.86
2018-11-13T11:21:34.095Z,999.82
2018-11-13T11:22:34.149Z,999.80
2018-11-13T11:23:34.071Z,999.85
2018-11-13T11:24:33.871Z,999.87
2018-11-13T11:25:33.797Z,999.83
2018-11-13T11:26:33.828Z,999.84
2018-11-13T11:27:33.746Z,999.81
2018-11-13T11:28:33.574Z,999.81
2018-11-13T11:29:33.506Z,999.81
2018-11-13T11:30:33.427Z,999.74
2018-11-13T11:31:33.346Z,999.74
2018-11-13T11:32:33.323Z,999.74
2018-11-13T11:33:33.199Z,999.70
2018-11-13T11:34:33.123Z,999.72
2018-11-13T11:35:33.049Z,999.67
2018-11-13T11:36:32.973Z,999.67
2018-11-13T11:37:32.899Z,999.66
2018-11-13T11:38:32.857Z,999.70
2018-11-13T11:39:32.753Z,999.69
2018-11-13T11:40:32.675Z,999.66
2018-11-13T11:41:32.601Z,999.61
2018-11-13T11:42:32.526Z,999.59
2018-11-13T11:43:32.451Z,999.67
2018-11-13T11:44:32.457Z,999.68
2018-11-13T11:45:32.301Z,999.74
2018-11-13T11:46:32.227Z,999.78
2018-11-13T11:47:32.148Z,999.96
2018-11-13T11:48:32.074Z,999.98
2018-11-13T11:49:32.000Z,1000.09
2018-11-13T11:50:31.926Z,999.92
2018-11-13T11:51:31.851Z,999.89
2018-11-13T11:52:31.777Z,999.82
2018-11-13T11:53:31.703Z,999.94
2018-11-13T11:54:31.631Z,999.91
2018-11-13T11:55:31.554Z,999.91
2018-11-13T11:56:31.479Z,999.96
2018-11-13T11:57:31.406Z,1000.02
2018-11-13T11:58:31.333Z,1000.13
2018-11-13T11:59:31.257Z,999.92
2018-11-13T12:00:31.245Z,999.91
2018-11-13T12:01:31.111Z,999.93
2018-11-13T12:02:31.037Z,1000.02
2018-11-13T12:03:30.963Z,1000.20
2018-11-13T12:04:30.889Z,1000.13
2018-11-13T12:05:30.817Z,1000.29
2018-11-13T12:06:30.741Z,1000.13
2018-11-13T12:07:30.667Z,1000.11
2018-11-13T12:08:30.596Z,1000.04
2018-11-13T12:09:30.621Z,1000.07
2018-11-13T12:10:30.447Z,1000.06
2018-11-13T12:11:30.375Z,1000.07
2018-11-13T12:12:30.301Z,1000.07
2018-11-13T12:13:30.227Z,1000.10
2018-11-13T12:14:30.155Z,1000.09
2018-11-13T12:15:30.079Z,1000.03
2018-11-13T12:16:30.007Z,1000.05
2018-11-13T12:17:29.932Z,1000.06
2018-11-13T12:18:29.860Z,1000.04
2018-11-13T12:19:29.829Z,1000.03
2018-11-13T12:20:29.712Z,1000.06
2018-11-13T12:21:29.639Z,999.95
2018-11-13T12:22:29.564Z,1000.08
2018-11-13T12:23:29.490Z,1000.12
2018-11-13T12:24:29.417Z,1000.04
2018-11-13T12:25:29.342Z,1000.13
2018-11-13T12:26:29.267Z,1000.07